Wetterdaten: Woche 29.06.15 - 05.07.15 (KW27)
Datum Zeit Temp. Aussen +5cm Feuchte Auss BlattFeu 1 Luftdruck Regen Sonnenschein Regendauer Solar Windben
29.06.2015 00:00 19,9 C 17,1 C 72 % 0 lf 1018,5 hPa 0,0 l/m 0,00 h 0,00 h 0 W/m 5,1 km/h (1 Bft)
29.06.2015 01:00 19,2 C 16,7 C 74 % 0 lf 1018,4 hPa 0,0 l/m 0,00 h 0,00 h 0 W/m 4,4 km/h (1 Bft)
29.06.2015 02:00 18,8 C 16,5 C 76 % 0 lf 1018,4 hPa 0,0 l/m 0,00 h 0,00 h 0 W/m 2,0 km/h (1 Bft)
29.06.2015 03:00 18,4 C 16,1 C 80 % 0 lf 1018,3 hPa 0,0 l/m 0,00 h 0,00 h 0 W/m 0,4 km/h (0 Bft)
29.06.2015 04:00 18,1 C 16,1 C 83 % 0 lf 1018,3 hPa 0,0 l/m 0,00 h 0,00 h 0 W/m 0,1 km/h (0 Bft)
29.06.2015 05:00 17,6 C 15,2 C 83 % 0 lf 1018,6 hPa 0,0 l/m 0,40 h 0,00 h 19 W/m 0,0 km/h (0 Bft)
29.06.2015 06:00 17,2 C 15,7 C 85 % 0 lf 1018,9 hPa 0,0 l/m 0,90 h 0,00 h 89 W/m 0,3 km/h (0 Bft)
29.06.2015 07:00 17,6 C 16,8 C 83 % 0 lf 1019,3 hPa 0,0 l/m 0,97 h 0,00 h 264 W/m 9,6 km/h (2 Bft)
29.06.2015 08:00 18,8 C 17,8 C 77 % 0 lf 1019,8 hPa 0,0 l/m 0,77 h 0,00 h 316 W/m 10,2 km/h (2 Bft)
29.06.2015 09:00 20,0 C 18,7 C 74 % 0 lf 1020,3 hPa 0,0 l/m 0,97 h 0,00 h 472 W/m 10,5 km/h (2 Bft)
29.06.2015 10:00 22,1 C 24,0 C 67 % 0 lf 1020,7 hPa 0,0 l/m 1,00 h 0,00 h 707 W/m 11,7 km/h (2 Bft)
29.06.2015 11:00 23,8 C 25,3 C 64 % 0 lf 1020,7 hPa 0,0 l/m 0,90 h 0,00 h 785 W/m 11,0 km/h (2 Bft)
29.06.2015 12:00 25,1 C 26,6 C 61 % 0 lf 1020,8 hPa 0,0 l/m 0,77 h 0,00 h 786 W/m 13,6 km/h (3 Bft)
29.06.2015 13:00 25,7 C 24,5 C 56 % 0 lf 1020,9 hPa 0,0 l/m 0,70 h 0,00 h 748 W/m 14,9 km/h (3 Bft)
29.06.2015 14:00 26,1 C 25,1 C 54 % 0 lf 1020,8 hPa 0,0 l/m 0,50 h 0,00 h 599 W/m 14,4 km/h (3 Bft)
29.06.2015 15:00 26,9 C 24,0 C 52 % 0 lf 1020,6 hPa 0,0 l/m 0,90 h 0,00 h 757 W/m 14,3 km/h (3 Bft)
29.06.2015 16:00 26,1 C 19,8 C 53 % 1 lf 1020,6 hPa 0,0 l/m 0,90 h 0,00 h 519 W/m 13,5 km/h (3 Bft)
29.06.2015 17:00 26,3 C 19,3 C 52 % 1 lf 1020,6 hPa 0,0 l/m 0,97 h 0,00 h 543 W/m 13,9 km/h (3 Bft)
29.06.2015 18:00 25,7 C 22,1 C 53 % 0 lf 1020,5 hPa 0,0 l/m 0,63 h 0,00 h 292 W/m 10,4 km/h (2 Bft)
29.06.2015 19:00 24,8 C 22,5 C 55 % 0 lf 1020,8 hPa 0,0 l/m 0,93 h 0,00 h 182 W/m 10,4 km/h (2 Bft)
29.06.2015 20:00 24,0 C 19,9 C 56 % 0 lf 1021,1 hPa 0,0 l/m 0,63 h 0,03 h 87 W/m 10,6 km/h (2 Bft)
29.06.2015 21:00 23,0 C 18,6 C 61 % 0 lf 1021,5 hPa 0,0 l/m 0,70 h 0,00 h 32 W/m 7,3 km/h (2 Bft)
29.06.2015 22:00 21,3 C 16,2 C 65 % 0 lf 1021,9 hPa 0,0 l/m 0,00 h 0,00 h 7 W/m 3,4 km/h (1 Bft)
29.06.2015 23:00 19,3 C 15,1 C 70 % 0 lf 1021,9 hPa 0,0 l/m 0,00 h 0,00 h 0 W/m 2,8 km/h (1 Bft)
30.06.2015 00:00 17,9 C 14,3 C 76 % 0 lf 1022,0 hPa 0,0 l/m 0,00 h 0,00 h 0 W/m 3,1 km/h (1 Bft)
30.06.2015 01:00 16,8 C 13,8 C 80 % 0 lf 1021,8 hPa 0,0 l/m 0,00 h 0,00 h 0 W/m 2,0 km/h (1 Bft)
30.06.2015 02:00 15,9 C 13,1 C 84 % 1 lf 1021,6 hPa 0,0 l/m 0,00 h 0,00 h 0 W/m 2,0 km/h (1 Bft)
30.06.2015 03:00 15,0 C 12,6 C 87 % 1 lf 1021,5 hPa 0,0 l/m 0,00 h 0,00 h 0 W/m 1,5 km/h (1 Bft)
30.06.2015 04:00 14,3 C 12,0 C 89 % 2 lf 1021,2 hPa 0,0 l/m 0,00 h 0,00 h 0 W/m 1,7 km/h (1 Bft)
30.06.2015 05:00 13,6 C 11,7 C 90 % 7 lf 1021,3 hPa 0,0 l/m 0,27 h 0,00 h 13 W/m 1,9 km/h (1 Bft)
30.06.2015 06:00 13,0 C 11,8 C 91 % 9 lf 1021,6 hPa 0,0 l/m 1,00 h 0,00 h 98 W/m 1,7 km/h (1 Bft)
30.06.2015 07:00 13,8 C 13,4 C 94 % 1 lf 1021,7 hPa 0,0 l/m 1,00 h 0,00 h 254 W/m 3,5 km/h (1 Bft)
30.06.2015 08:00 16,1 C 16,2 C 96 % 0 lf 1021,8 hPa 0,0 l/m 0,95 h 0,00 h 421 W/m 4,5 km/h (1 Bft)
30.06.2015 09:00 20,8 C 19,0 C 82 % 0 lf 1021,9 hPa 0,0 l/m 1,00 h 0,00 h 570 W/m 6,9 km/h (2 Bft)
30.06.2015 10:00 24,0 C 26,2 C 68 % 0 lf 1021,7 hPa 0,0 l/m 1,00 h 0,00 h 710 W/m 9,4 km/h (2 Bft)
30.06.2015 11:00 26,1 C 28,7 C 57 % 0 lf 1021,4 hPa 0,0 l/m 1,00 h 0,00 h 823 W/m 12,6 km/h (3 Bft)
30.06.2015 12:00 27,2 C 29,7 C 51 % 0 lf 1021,2 hPa 0,0 l/m 0,62 h 0,00 h 834 W/m 12,8 km/h (3 Bft)
30.06.2015 13:00 28,8 C 27,0 C 45 % 0 lf 1020,8 hPa 0,0 l/m 0,87 h 0,00 h 909 W/m 13,3 km/h (3 Bft)
30.06.2015 14:00 29,5 C 27,2 C 42 % 0 lf 1020,3 hPa 0,0 l/m 1,00 h 0,00 h 891 W/m 13,4 km/h (3 Bft)
30.06.2015 15:00 29,8 C 28,3 C 41 % 0 lf 1019,8 hPa 0,0 l/m 1,00 h 0,00 h 820 W/m 12,4 km/h (3 Bft)
30.06.2015 16:00 30,4 C 25,7 C 39 % 0 lf 1019,3 hPa 0,0 l/m 1,00 h 0,00 h 718 W/m 12,6 km/h (3 Bft)
30.06.2015 17:00 30,3 C 18,9 C 40 % 0 lf 1018,8 hPa 0,0 l/m 1,00 h 0,00 h 581 W/m 13,2 km/h (3 Bft)
30.06.2015 18:00 29,2 C 24,9 C 42 % 0 lf 1018,4 hPa 0,0 l/m 1,00 h 0,00 h 428 W/m 12,4 km/h (3 Bft)
30.06.2015 19:00 28,4 C 25,3 C 45 % 0 lf 1018,2 hPa 0,0 l/m 0,98 h 0,00 h 260 W/m 13,1 km/h (3 Bft)
30.06.2015 20:00 27,6 C 24,0 C 49 % 0 lf 1018,2 hPa 0,0 l/m 0,83 h 0,00 h 102 W/m 13,0 km/h (3 Bft)
30.06.2015 21:00 26,1 C 22,3 C 51 % 0 lf 1018,4 hPa 0,0 l/m 0,03 h 0,00 h 20 W/m 13,3 km/h (3 Bft)
30.06.2015 22:00 24,3 C 20,6 C 56 % 0 lf 1018,6 hPa 0,0 l/m 0,00 h 0,00 h 5 W/m 13,3 km/h (3 Bft)
30.06.2015 23:00 22,8 C 19,5 C 59 % 0 lf 1018,5 hPa 0,0 l/m 0,00 h 0,00 h 0 W/m 10,8 km/h (2 Bft)
01.07.2015 00:00 21,5 C 17,9 C 62 % 0 lf 1018,4 hPa 0,0 l/m 0,00 h 0,00 h 0 W/m 6,4 km/h (2 Bft)
01.07.2015 01:00 20,1 C 16,2 C 66 % 0 lf 1018,3 hPa 0,0 l/m 0,00 h 0,00 h 0 W/m 3,4 km/h (1 Bft)
01.07.2015 02:00 18,7 C 15,3 C 72 % 0 lf 1018,2 hPa 0,0 l/m 0,00 h 0,00 h 0 W/m 4,8 km/h (1 Bft)
01.07.2015 03:00 17,6 C 14,7 C 76 % 0 lf 1018,0 hPa 0,0 l/m 0,00 h 0,00 h 0 W/m 4,6 km/h (1 Bft)
01.07.2015 04:00 17,1 C 14,4 C 79 % 0 lf 1017,9 hPa 0,0 l/m 0,00 h 0,00 h 0 W/m 4,3 km/h (1 Bft)
01.07.2015 05:00 16,9 C 14,7 C 80 % 0 lf 1018,1 hPa 0,0 l/m 0,27 h 0,00 h 14 W/m 6,4 km/h (2 Bft)
01.07.2015 06:00 17,4 C 16,1 C 80 % 0 lf 1018,2 hPa 0,0 l/m 0,97 h 0,00 h 118 W/m 9,2 km/h (2 Bft)
01.07.2015 07:00 19,1 C 18,1 C 76 % 0 lf 1018,1 hPa 0,0 l/m 0,63 h 0,00 h 189 W/m 16,6 km/h (3 Bft)
01.07.2015 08:00 21,5 C 19,8 C 69 % 0 lf 1017,9 hPa 0,0 l/m 0,80 h 0,00 h 359 W/m 19,7 km/h (3 Bft)
01.07.2015 09:00 24,7 C 22,4 C 61 % 0 lf 1017,9 hPa 0,0 l/m 0,90 h 0,00 h 538 W/m 22,3 km/h (4 Bft)
01.07.2015 10:00 27,9 C 30,0 C 54 % 0 lf 1017,8 hPa 0,0 l/m 1,00 h 0,00 h 713 W/m 21,7 km/h (4 Bft)
01.07.2015 11:00 30,3 C 32,3 C 48 % 0 lf 1017,5 hPa 0,0 l/m 1,00 h 0,00 h 814 W/m 25,0 km/h (4 Bft)
01.07.2015 12:00 32,2 C 34,1 C 43 % 0 lf 1017,0 hPa 0,0 l/m 0,92 h 0,00 h 852 W/m 26,2 km/h (4 Bft)
01.07.2015 13:00 33,2 C 31,4 C 41 % 0 lf 1016,6 hPa 0,0 l/m 1,00 h 0,00 h 818 W/m 27,8 km/h (4 Bft)
01.07.2015 14:00 34,2 C 32,1 C 39 % 0 lf 1016,1 hPa 0,0 l/m 1,00 h 0,00 h 884 W/m 25,5 km/h (4 Bft)
01.07.2015 15:00 34,9 C 33,3 C 37 % 0 lf 1015,8 hPa 0,0 l/m 1,00 h 0,00 h 822 W/m 26,3 km/h (4 Bft)
01.07.2015 16:00 35,3 C 33,7 C 38 % 0 lf 1015,5 hPa 0,0 l/m 1,00 h 0,00 h 703 W/m 24,2 km/h (4 Bft)
01.07.2015 17:00 35,2 C 31,3 C 39 % 0 lf 1015,1 hPa 0,0 l/m 1,00 h 0,00 h 576 W/m 24,5 km/h (4 Bft)
01.07.2015 18:00 34,0 C 21,5 C 42 % 0 lf 1014,9 hPa 0,0 l/m 0,98 h 0,00 h 419 W/m 22,7 km/h (4 Bft)
01.07.2015 19:00 32,8 C 26,7 C 43 % 0 lf 1014,7 hPa 0,0 l/m 1,00 h 0,00 h 260 W/m 21,2 km/h (4 Bft)
01.07.2015 20:00 31,8 C 27,4 C 44 % 0 lf 1014,9 hPa 0,0 l/m 0,90 h 0,00 h 103 W/m 18,7 km/h (3 Bft)
01.07.2015 21:00 30,4 C 23,3 C 47 % 0 lf 1015,1 hPa 0,0 l/m 0,27 h 0,00 h 23 W/m 16,3 km/h (3 Bft)
01.07.2015 22:00 28,5 C 22,1 C 52 % 0 lf 1015,6 hPa 0,0 l/m 0,00 h 0,00 h 5 W/m 12,9 km/h (3 Bft)
01.07.2015 23:00 27,3 C 22,7 C 56 % 0 lf 1015,8 hPa 0,0 l/m 0,00 h 0,00 h 5 W/m 10,9 km/h (2 Bft)
02.07.2015 00:00 25,9 C 21,7 C 60 % 0 lf 1016,1 hPa 0,0 l/m 0,00 h 0,00 h 5 W/m 7,7 km/h (2 Bft)
02.07.2015 01:00 24,7 C 21,1 C 64 % 0 lf 1016,1 hPa 0,0 l/m 0,00 h 0,00 h 5 W/m 8,0 km/h (2 Bft)
02.07.2015 02:00 23,9 C 21,0 C 67 % 0 lf 1016,3 hPa 0,0 l/m 0,00 h 0,00 h 5 W/m 12,1 km/h (2 Bft)
02.07.2015 03:00 24,0 C 21,5 C 65 % 0 lf 1016,2 hPa 0,0 l/m 0,00 h 0,00 h 5 W/m 13,3 km/h (3 Bft)
02.07.2015 04:00 23,6 C 21,0 C 66 % 0 lf 1016,1 hPa 0,0 l/m 0,00 h 0,00 h 5 W/m 12,9 km/h (3 Bft)
02.07.2015 05:00 23,2 C 20,8 C 68 % 0 lf 1016,1 hPa 0,0 l/m 0,27 h 0,00 h 15 W/m 16,2 km/h (3 Bft)
02.07.2015 06:00 23,3 C 21,3 C 68 % 0 lf 1016,3 hPa 0,0 l/m 0,98 h 0,00 h 94 W/m 18,4 km/h (3 Bft)
02.07.2015 07:00 24,3 C 22,4 C 67 % 0 lf 1016,4 hPa 0,0 l/m 1,00 h 0,00 h 244 W/m 20,0 km/h (4 Bft)
02.07.2015 08:00 25,7 C 23,4 C 65 % 0 lf 1017,0 hPa 0,0 l/m 1,00 h 0,00 h 398 W/m 18,3 km/h (3 Bft)
02.07.2015 09:00 28,5 C 25,9 C 60 % 0 lf 1016,9 hPa 0,0 l/m 1,00 h 0,00 h 549 W/m 20,1 km/h (4 Bft)
02.07.2015 10:00 31,5 C 33,1 C 55 % 0 lf 1016,8 hPa 0,0 l/m 1,00 h 0,00 h 690 W/m 16,4 km/h (3 Bft)
02.07.2015 11:00 33,7 C 35,5 C 51 % 0 lf 1016,7 hPa 0,0 l/m 1,00 h 0,00 h 792 W/m 18,0 km/h (3 Bft)
02.07.2015 12:00 35,4 C 37,0 C 47 % 0 lf 1016,5 hPa 0,0 l/m 0,92 h 0,00 h 801 W/m 18,7 km/h (3 Bft)
02.07.2015 13:00 36,9 C 35,0 C 43 % 0 lf 1016,4 hPa 0,0 l/m 1,00 h 0,00 h 874 W/m 18,0 km/h (3 Bft)
02.07.2015 14:00 38,0 C 35,4 C 43 % 0 lf 1016,0 hPa 0,0 l/m 1,00 h 0,00 h 845 W/m 19,7 km/h (3 Bft)
02.07.2015 15:00 38,6 C 36,6 C 42 % 0 lf 1015,6 hPa 0,0 l/m 0,95 h 0,00 h 773 W/m 18,4 km/h (3 Bft)
02.07.2015 16:00 39,0 C 37,1 C 40 % 0 lf 1015,6 hPa 0,0 l/m 1,00 h 0,00 h 660 W/m 21,7 km/h (4 Bft)
02.07.2015 17:00 38,2 C 34,7 C 41 % 0 lf 1015,5 hPa 0,0 l/m 0,57 h 0,00 h 386 W/m 22,0 km/h (4 Bft)
02.07.2015 18:00 36,4 C 33,2 C 45 % 0 lf 1015,6 hPa 0,0 l/m 0,37 h 0,00 h 215 W/m 19,8 km/h (4 Bft)
02.07.2015 19:00 34,7 C 30,5 C 53 % 0 lf 1016,3 hPa 0,0 l/m 0,87 h 0,00 h 195 W/m 16,0 km/h (3 Bft)
02.07.2015 20:00 30,7 C 27,9 C 63 % 0 lf 1017,1 hPa 0,0 l/m 0,80 h 0,00 h 121 W/m 19,4 km/h (3 Bft)
02.07.2015 21:00 28,4 C 25,8 C 67 % 0 lf 1017,5 hPa 0,0 l/m 0,13 h 0,00 h 21 W/m 18,3 km/h (3 Bft)
02.07.2015 22:00 26,9 C 23,8 C 71 % 0 lf 1018,4 hPa 0,0 l/m 0,00 h 0,00 h 5 W/m 16,6 km/h (3 Bft)
02.07.2015 23:00 24,9 C 22,5 C 75 % 0 lf 1019,6 hPa 0,0 l/m 0,00 h 0,00 h 5 W/m 16,9 km/h (3 Bft)
03.07.2015 00:00 23,8 C 21,8 C 77 % 0 lf 1020,4 hPa 0,0 l/m 0,00 h 0,00 h 5 W/m 12,1 km/h (2 Bft)
03.07.2015 01:00 23,0 C 21,0 C 78 % 0 lf 1021,0 hPa 0,0 l/m 0,00 h 0,00 h 5 W/m 10,3 km/h (2 Bft)
03.07.2015 02:00 22,2 C 20,2 C 81 % 0 lf 1021,8 hPa 0,0 l/m 0,00 h 0,00 h 5 W/m 9,9 km/h (2 Bft)
03.07.2015 03:00 21,2 C 19,1 C 84 % 0 lf 1021,9 hPa 0,0 l/m 0,00 h 0,00 h 0 W/m 9,0 km/h (2 Bft)
03.07.2015 04:00 20,4 C 18,6 C 87 % 1 lf 1022,5 hPa 0,0 l/m 0,00 h 0,00 h 0 W/m 7,6 km/h (2 Bft)
03.07.2015 05:00 19,9 C 18,5 C 89 % 1 lf 1023,1 hPa 0,0 l/m 0,00 h 0,00 h 8 W/m 6,4 km/h (2 Bft)
03.07.2015 06:00 20,0 C 19,2 C 91 % 0 lf 1023,3 hPa 0,0 l/m 0,73 h 0,00 h 79 W/m 7,8 km/h (2 Bft)
03.07.2015 07:00 20,5 C 19,7 C 91 % 0 lf 1023,5 hPa 0,0 l/m 1,00 h 0,00 h 201 W/m 10,9 km/h (2 Bft)
03.07.2015 08:00 21,6 C 21,2 C 89 % 0 lf 1023,5 hPa 0,0 l/m 0,93 h 0,00 h 339 W/m 9,4 km/h (2 Bft)
03.07.2015 09:00 23,8 C 23,2 C 83 % 0 lf 1023,5 hPa 0,0 l/m 0,97 h 0,00 h 509 W/m 8,3 km/h (2 Bft)
03.07.2015 10:00 26,6 C 28,8 C 73 % 0 lf 1023,5 hPa 0,0 l/m 1,00 h 0,00 h 648 W/m 9,9 km/h (2 Bft)
03.07.2015 11:00 28,2 C 30,4 C 69 % 0 lf 1023,2 hPa 0,0 l/m 1,00 h 0,00 h 751 W/m 9,8 km/h (2 Bft)
03.07.2015 12:00 29,9 C 32,5 C 64 % 0 lf 1023,0 hPa 0,0 l/m 0,97 h 0,00 h 821 W/m 10,7 km/h (2 Bft)
03.07.2015 13:00 31,7 C 30,8 C 58 % 0 lf 1022,7 hPa 0,0 l/m 1,00 h 0,00 h 836 W/m 11,2 km/h (2 Bft)
03.07.2015 14:00 33,3 C 31,7 C 54 % 0 lf 1022,3 hPa 0,0 l/m 1,00 h 0,00 h 819 W/m 11,0 km/h (2 Bft)
03.07.2015 15:00 34,0 C 32,3 C 52 % 0 lf 1021,8 hPa 0,0 l/m 1,00 h 0,00 h 753 W/m 12,1 km/h (2 Bft)
03.07.2015 16:00 34,6 C 33,8 C 52 % 0 lf 1021,5 hPa 0,0 l/m 1,00 h 0,00 h 646 W/m 11,7 km/h (2 Bft)
03.07.2015 17:00 33,8 C 29,9 C 54 % 0 lf 1020,9 hPa 0,0 l/m 1,00 h 0,00 h 534 W/m 17,3 km/h (3 Bft)
03.07.2015 18:00 32,4 C 23,4 C 58 % 0 lf 1020,7 hPa 0,0 l/m 0,98 h 0,00 h 388 W/m 17,6 km/h (3 Bft)
03.07.2015 19:00 31,4 C 22,6 C 61 % 0 lf 1020,7 hPa 0,0 l/m 1,00 h 0,00 h 224 W/m 20,5 km/h (4 Bft)
03.07.2015 20:00 30,7 C 25,2 C 63 % 0 lf 1020,5 hPa 0,0 l/m 0,63 h 0,00 h 88 W/m 12,4 km/h (3 Bft)
03.07.2015 21:00 29,6 C 24,9 C 65 % 0 lf 1020,5 hPa 0,0 l/m 0,50 h 0,00 h 26 W/m 8,8 km/h (2 Bft)
03.07.2015 22:00 28,3 C 22,9 C 69 % 0 lf 1020,5 hPa 0,0 l/m 0,00 h 0,00 h 4 W/m 6,9 km/h (2 Bft)
03.07.2015 23:00 26,8 C 22,8 C 72 % 0 lf 1020,3 hPa 0,0 l/m 0,00 h 0,00 h 0 W/m 10,3 km/h (2 Bft)
04.07.2015 00:00 26,2 C 23,0 C 75 % 0 lf 1020,0 hPa 0,0 l/m 0,00 h 0,00 h 0 W/m 11,8 km/h (2 Bft)
04.07.2015 01:00 25,5 C 22,5 C 77 % 0 lf 1019,6 hPa 0,0 l/m 0,00 h 0,00 h 0 W/m 10,1 km/h (2 Bft)
04.07.2015 02:00 24,8 C 21,6 C 79 % 0 lf 1018,9 hPa 0,0 l/m 0,00 h 0,00 h 0 W/m 7,6 km/h (2 Bft)
04.07.2015 03:00 24,1 C 21,2 C 81 % 0 lf 1018,3 hPa 0,0 l/m 0,00 h 0,00 h 0 W/m 6,7 km/h (2 Bft)
04.07.2015 04:00 23,5 C 20,6 C 83 % 0 lf 1017,7 hPa 0,0 l/m 0,00 h 0,00 h 0 W/m 3,6 km/h (1 Bft)
04.07.2015 05:00 22,9 C 20,2 C 86 % 1 lf 1017,4 hPa 0,0 l/m 0,23 h 0,00 h 15 W/m 6,0 km/h (2 Bft)
04.07.2015 06:00 22,8 C 20,9 C 88 % 0 lf 1016,9 hPa 0,0 l/m 0,10 h 0,00 h 57 W/m 6,3 km/h (2 Bft)
04.07.2015 07:00 23,4 C 22,4 C 88 % 0 lf 1016,7 hPa 0,0 l/m 1,00 h 0,00 h 211 W/m 10,2 km/h (2 Bft)
04.07.2015 08:00 26,2 C 25,1 C 79 % 0 lf 1016,7 hPa 0,0 l/m 1,00 h 0,00 h 324 W/m 16,2 km/h (3 Bft)
04.07.2015 09:00 28,9 C 26,9 C 71 % 0 lf 1016,6 hPa 0,0 l/m 1,00 h 0,00 h 449 W/m 15,2 km/h (3 Bft)
04.07.2015 10:00 31,8 C 33,0 C 62 % 0 lf 1016,8 hPa 0,0 l/m 1,00 h 0,00 h 627 W/m 14,6 km/h (3 Bft)
04.07.2015 11:00 34,3 C 34,9 C 55 % 0 lf 1016,9 hPa 0,0 l/m 1,00 h 0,00 h 749 W/m 16,0 km/h (3 Bft)
04.07.2015 12:00 36,1 C 36,8 C 50 % 0 lf 1016,9 hPa 0,0 l/m 0,90 h 0,00 h 792 W/m 14,9 km/h (3 Bft)
04.07.2015 13:00 37,2 C 34,6 C 45 % 0 lf 1017,1 hPa 0,0 l/m 1,00 h 0,00 h 892 W/m 19,2 km/h (3 Bft)
04.07.2015 14:00 37,8 C 34,6 C 43 % 0 lf 1017,2 hPa 0,0 l/m 1,00 h 0,00 h 845 W/m 18,1 km/h (3 Bft)
04.07.2015 15:00 38,1 C 34,9 C 40 % 0 lf 1017,4 hPa 0,0 l/m 1,00 h 0,00 h 770 W/m 17,8 km/h (3 Bft)
04.07.2015 16:00 37,9 C 35,8 C 41 % 0 lf 1017,5 hPa 0,0 l/m 0,63 h 0,00 h 473 W/m 13,3 km/h (3 Bft)
04.07.2015 17:00 36,3 C 33,3 C 43 % 0 lf 1017,4 hPa 0,0 l/m 0,53 h 0,00 h 358 W/m 9,5 km/h (2 Bft)
04.07.2015 18:00 36,0 C 31,7 C 45 % 0 lf 1017,2 hPa 0,0 l/m 0,80 h 0,00 h 313 W/m 9,9 km/h (2 Bft)
04.07.2015 19:00 34,9 C 30,8 C 49 % 0 lf 1017,2 hPa 0,0 l/m 0,77 h 0,00 h 219 W/m 10,9 km/h (2 Bft)
04.07.2015 20:00 32,7 C 29,2 C 53 % 0 lf 1017,6 hPa 0,0 l/m 0,00 h 0,00 h 63 W/m 11,8 km/h (2 Bft)
04.07.2015 21:00 30,1 C 24,1 C 54 % 0 lf 1018,0 hPa 0,0 l/m 0,00 h 0,03 h 13 W/m 13,6 km/h (3 Bft)
04.07.2015 22:00 27,7 C 24,4 C 59 % 0 lf 1018,4 hPa 0,0 l/m 0,00 h 0,00 h 5 W/m 15,5 km/h (3 Bft)
04.07.2015 23:00 26,0 C 23,5 C 61 % 0 lf 1018,7 hPa 0,0 l/m 0,00 h 0,00 h 0 W/m 13,1 km/h (3 Bft)
05.07.2015 00:00 25,0 C 22,3 C 62 % 0 lf 1019,2 hPa 0,0 l/m 0,00 h 0,00 h 0 W/m 9,9 km/h (2 Bft)
05.07.2015 01:00 23,5 C 20,8 C 67 % 0 lf 1019,4 hPa 0,0 l/m 0,00 h 0,00 h 0 W/m 11,4 km/h (2 Bft)
05.07.2015 02:00 22,3 C 20,2 C 75 % 0 lf 1019,5 hPa 0,0 l/m 0,00 h 0,00 h 0 W/m 8,5 km/h (2 Bft)
05.07.2015 03:00 21,5 C 19,8 C 78 % 2 lf 1019,2 hPa 0,4 l/m 0,00 h 0,20 h 0 W/m 9,1 km/h (2 Bft)
05.07.2015 04:00 20,5 C 16,9 C 83 % 15 lf 1018,7 hPa 0,2 l/m 0,00 h 0,10 h 0 W/m 6,0 km/h (2 Bft)
05.07.2015 05:00 19,4 C 17,1 C 87 % 15 lf 1018,8 hPa 0,0 l/m 0,00 h 0,07 h 5 W/m 5,3 km/h (1 Bft)
05.07.2015 06:00 19,1 C 16,8 C 90 % 15 lf 1017,8 hPa 0,4 l/m 0,00 h 0,28 h 23 W/m 9,0 km/h (2 Bft)
05.07.2015 07:00 19,5 C 17,3 C 88 % 7 lf 1017,4 hPa 0,0 l/m 0,30 h 0,00 h 126 W/m 7,4 km/h (2 Bft)
05.07.2015 08:00 20,3 C 18,0 C 91 % 12 lf 1017,0 hPa 8,8 l/m 0,00 h 0,70 h 35 W/m 19,5 km/h (3 Bft)
05.07.2015 09:00 20,9 C 19,3 C 94 % 15 lf 1016,6 hPa 0,0 l/m 0,43 h 0,13 h 311 W/m 8,2 km/h (2 Bft)
05.07.2015 10:00 22,3 C 21,4 C 92 % 6 lf 1015,8 hPa 0,0 l/m 0,73 h 0,00 h 471 W/m 9,5 km/h (2 Bft)
05.07.2015 11:00 24,0 C 25,6 C 86 % 0 lf 1015,0 hPa 0,0 l/m 0,73 h 0,00 h 582 W/m 8,5 km/h (2 Bft)
05.07.2015 12:00 25,7 C 27,1 C 82 % 0 lf 1014,5 hPa 0,0 l/m 0,70 h 0,00 h 641 W/m 9,7 km/h (2 Bft)
05.07.2015 13:00 28,5 C 28,4 C 76 % 0 lf 1013,3 hPa 0,0 l/m 0,73 h 0,00 h 635 W/m 10,3 km/h (2 Bft)
05.07.2015 14:00 30,5 C 29,7 C 68 % 0 lf 1012,5 hPa 0,0 l/m 0,83 h 0,13 h 668 W/m 14,7 km/h (3 Bft)
05.07.2015 15:00 30,5 C 29,6 C 68 % 0 lf 1011,8 hPa 0,0 l/m 0,47 h 0,10 h 488 W/m 8,3 km/h (2 Bft)
05.07.2015 16:00 31,3 C 31,1 C 64 % 0 lf 1011,7 hPa 0,0 l/m 0,80 h 0,00 h 538 W/m 23,7 km/h (4 Bft)
05.07.2015 17:00 25,0 C 23,7 C 67 % 0 lf 1013,3 hPa 0,0 l/m 0,37 h 0,05 h 287 W/m 35,0 km/h (5 Bft)
05.07.2015 18:00 22,6 C 21,7 C 67 % 0 lf 1014,6 hPa 0,0 l/m 0,30 h 0,00 h 243 W/m 29,3 km/h (5 Bft)
05.07.2015 19:00 21,3 C 19,9 C 71 % 4 lf 1014,9 hPa 0,0 l/m 0,03 h 0,37 h 84 W/m 15,4 km/h (3 Bft)
05.07.2015 20:00 20,8 C 19,6 C 75 % 1 lf 1015,3 hPa 0,0 l/m 0,17 h 0,17 h 58 W/m 9,0 km/h (2 Bft)
05.07.2015 21:00 19,5 C 16,9 C 83 % 12 lf 1015,8 hPa 0,2 l/m 0,00 h 0,20 h 10 W/m 6,1 km/h (2 Bft)
05.07.2015 22:00 18,4 C 16,0 C 88 % 7 lf 1016,7 hPa 0,0 l/m 0,00 h 0,00 h 0 W/m 5,3 km/h (1 Bft)
05.07.2015 23:00 18,2 C 16,4 C 89 % 0 lf 1017,5 hPa 0,0 l/m 0,00 h 0,00 h 0 W/m 6,9 km/h (2 Bft)
Min-Datum _ 30.06.15 30.06.15 01.07.15 29.06.15 05.07.15 - - - - 29.06.15
_ Min-Zeit 06:28 04:34 15:00 00:00 15:52 - - - - 00:00
Minimum _ 12,9 C 11,7 C 36 % 0 lf 1011,4 hPa - - - - 0,0 km/h (0 Bft)
Max-Datum _ 02.07.15 02.07.15 30.06.15 29.06.15 03.07.15 05.07.15 29.06.15 29.06.15 29.06.15 05.07.15
_ Max-Zeit 16:22 15:58 08:08 16:02 07:54 08:24 05:36 20:42 13:50 08:22
Maximum _ 39,1 C 41,1 C 96 % 15 lf 1023,7 hPa 8,8 l/m 0,03 h 0,03 h 1066 W/m 56,5 km/h
NO (7 Bft)
Durchschnitt _ 25,9 C 23,6 C 65 % 1 lf 1018,5 hPa #10,0 l/m #89:51 h #2:34 h 383 W/m 12,2 km/h (2 Bft)
© 2015 W. Hausmann